createdAt,value
2022-10-17T00:00:35.054Z,101591.19
2022-10-17T00:03:02.757Z,101582.69
2022-10-17T00:05:30.393Z,101596.34
2022-10-17T00:07:58.089Z,101589.41
2022-10-17T00:10:25.745Z,101592.88
2022-10-17T00:12:53.718Z,101592.06
2022-10-17T00:15:23.297Z,101590.50
2022-10-17T00:17:51.177Z,101583.09
2022-10-17T00:20:19.257Z,101581.50
2022-10-17T00:22:46.965Z,101577.28
2022-10-17T00:25:14.686Z,101577.06
2022-10-17T00:27:43.060Z,101570.94
2022-10-17T00:30:14.048Z,101558.69
2022-10-17T00:32:43.238Z,101560.88
2022-10-17T00:35:11.368Z,101558.22
2022-10-17T00:37:39.704Z,101560.88
2022-10-17T00:40:08.965Z,101564.63
2022-10-17T00:42:37.014Z,101560.88
2022-10-17T00:45:14.025Z,101563.53
2022-10-17T00:47:45.110Z,101563.53
2022-10-17T00:50:14.343Z,101562.44
2022-10-17T00:52:42.776Z,101556.34
2022-10-17T00:55:15.715Z,101561.38
2022-10-17T00:57:45.157Z,101560.25
2022-10-17T01:00:13.605Z,101551.00
2022-10-17T01:02:41.297Z,101551.78
2022-10-17T01:05:11.736Z,101557.09
2022-10-17T01:07:42.377Z,101551.78
2022-10-17T01:10:11.814Z,101555.06
2022-10-17T01:12:49.244Z,101542.00
2022-10-17T01:15:25.861Z,101545.28
2022-10-17T01:18:05.598Z,101542.88
2022-10-17T01:21:23.719Z,101534.09
2022-10-17T01:24:34.324Z,101542.09
2022-10-17T01:27:26.925Z,101535.19
2022-10-17T01:30:12.031Z,101536.00
2022-10-17T01:32:46.768Z,101529.06
2022-10-17T01:35:21.182Z,101531.75
2022-10-17T01:37:54.718Z,101532.22
2022-10-17T01:40:26.937Z,101525.34
2022-10-17T01:42:59.870Z,101529.06
2022-10-17T01:45:32.628Z,101527.47
2022-10-17T01:48:09.421Z,101531.25
2022-10-17T01:50:42.680Z,101520.59
2022-10-17T01:53:15.573Z,101525.91
2022-10-17T01:55:47.341Z,101524.06
2022-10-17T01:58:20.940Z,101524.31
2022-10-17T02:00:50.617Z,101512.91
2022-10-17T02:03:21.767Z,101509.72
2022-10-17T02:05:49.780Z,101497.78
2022-10-17T02:08:27.268Z,101493.53
2022-10-17T02:10:59.201Z,101488.00
2022-10-17T02:13:42.110Z,101481.09
2022-10-17T02:16:17.232Z,101475.78
2022-10-17T02:19:13.396Z,101479.25
2022-10-17T02:21:51.468Z,101479.53
2022-10-17T02:24:28.064Z,101475.00
2022-10-17T02:27:05.113Z,101478.44
2022-10-17T02:29:37.732Z,101477.66
2022-10-17T02:32:09.763Z,101477.34
2022-10-17T02:34:43.450Z,101472.00
2022-10-17T02:37:14.001Z,101472.81
2022-10-17T02:39:43.244Z,101476.28
2022-10-17T02:42:13.386Z,101465.31
2022-10-17T02:44:44.873Z,101458.41
2022-10-17T02:47:17.919Z,101461.09
2022-10-17T02:49:51.749Z,101460.28
2022-10-17T02:52:28.147Z,101459.50
2022-10-17T02:55:01.486Z,101467.47
2022-10-17T02:57:32.933Z,101464.81
2022-10-17T03:00:03.889Z,101470.63
2022-10-17T03:02:39.775Z,101461.88
2022-10-17T03:05:10.548Z,101473.31
2022-10-17T03:07:38.203Z,101481.28
2022-10-17T03:10:06.880Z,101482.09
2022-10-17T03:12:34.509Z,101482.88
2022-10-17T03:15:02.233Z,101483.38
2022-10-17T03:17:29.872Z,101471.66
2022-10-17T03:19:57.529Z,101481.69
2022-10-17T03:22:26.784Z,101476.38
2022-10-17T03:24:54.568Z,101473.44
2022-10-17T03:27:22.224Z,101476.56
2022-10-17T03:29:49.867Z,101478.13
2022-10-17T03:32:17.535Z,101475.19
2022-10-17T03:34:45.127Z,101480.22
2022-10-17T03:37:12.772Z,101480.72
2022-10-17T03:39:41.769Z,101484.66
2022-10-17T03:42:09.369Z,101480.03
2022-10-17T03:44:36.980Z,101483.38
2022-10-17T03:47:04.609Z,101484.06
2022-10-17T03:49:32.229Z,101495.72
2022-10-17T03:51:59.834Z,101500.66
2022-10-17T03:54:27.448Z,101499.78
2022-10-17T03:59:25.002Z,101496.38
2022-10-17T04:01:52.624Z,101495.31
2022-10-17T04:04:20.255Z,101488.59
2022-10-17T04:06:47.904Z,101488.59
2022-10-17T04:09:15.564Z,101485.63
2022-10-17T04:11:43.269Z,101480.28
2022-10-17T04:14:12.452Z,101483.75
2022-10-17T04:16:40.077Z,101494.91
2022-10-17T04:19:07.694Z,101493.31
2022-10-17T04:21:35.317Z,101487.97
2022-10-17T04:24:03.000Z,101498.38
2022-10-17T04:26:30.614Z,101512.50
2022-10-17T04:28:58.270Z,101505.56
2022-10-17T04:31:27.260Z,101508.22
2022-10-17T04:33:54.872Z,101497.06
2022-10-17T04:36:23.317Z,101506.63
2022-10-17T04:38:51.000Z,101498.63
2022-10-17T04:41:19.563Z,101505.56
2022-10-17T04:43:50.258Z,101501.81
2022-10-17T04:46:19.470Z,101516.22
2022-10-17T04:48:48.422Z,101517.81
2022-10-17T04:51:20.593Z,101523.94
2022-10-17T04:53:50.851Z,101527.38
2022-10-17T04:56:20.216Z,101531.66
2022-10-17T04:58:48.841Z,101521.75
2022-10-17T05:01:18.388Z,101531.03
2022-10-17T05:03:48.064Z,101535.78
2022-10-17T05:06:17.786Z,101536.25
2022-10-17T05:08:45.963Z,101538.66
2022-10-17T05:11:19.162Z,101538.34
2022-10-17T05:13:51.332Z,101532.69
2022-10-17T05:16:18.974Z,101532.41
2022-10-17T05:18:52.932Z,101532.59
2022-10-17T05:21:21.713Z,101538.72
2022-10-17T05:23:49.463Z,101529.66
2022-10-17T05:26:17.150Z,101528.53
2022-10-17T05:28:44.847Z,101534.34
2022-10-17T05:31:12.593Z,101531.59
2022-10-17T05:33:40.833Z,101538.31
2022-10-17T05:36:10.509Z,101545.72
2022-10-17T05:38:38.172Z,101548.56
2022-10-17T05:41:07.086Z,101541.06
2022-10-17T05:43:35.133Z,101549.84
2022-10-17T05:46:05.151Z,101558.34
2022-10-17T05:48:33.113Z,101559.13
2022-10-17T05:51:01.673Z,101555.09
2022-10-17T05:53:33.716Z,101552.44
2022-10-17T05:56:02.817Z,101553.72
2022-10-17T06:01:19.116Z,101543.84
2022-10-17T06:03:46.784Z,101538.81
2022-10-17T06:06:15.785Z,101537.22
2022-10-17T06:08:45.573Z,101548.97
2022-10-17T06:11:14.285Z,101552.44
2022-10-17T06:13:42.275Z,101555.09
2022-10-17T06:16:10.404Z,101556.47
2022-10-17T06:18:38.103Z,101557.78
2022-10-17T06:21:07.593Z,101551.63
2022-10-17T06:23:35.284Z,101548.22
2022-10-17T06:26:06.739Z,101554.31
2022-10-17T06:28:34.821Z,101569.56
2022-10-17T06:31:06.455Z,101576.47
2022-10-17T06:33:34.116Z,101579.63
2022-10-17T06:36:01.934Z,101584.66
2022-10-17T06:38:31.969Z,101593.66
2022-10-17T06:41:08.198Z,101589.38
2022-10-17T06:43:36.078Z,101583.78
2022-10-17T06:46:03.703Z,101583.94
2022-10-17T06:48:31.449Z,101587.09
2022-10-17T06:51:00.977Z,101589.97
2022-10-17T06:53:29.673Z,101597.66
2022-10-17T06:56:01.362Z,101606.16
2022-10-17T06:58:30.761Z,101613.09
2022-10-17T07:01:02.135Z,101613.56
2022-10-17T07:03:30.263Z,101612.19
2022-10-17T07:05:58.768Z,101619.59
2022-10-17T07:08:27.290Z,101617.44
2022-10-17T07:10:56.848Z,101625.91
2022-10-17T07:13:25.447Z,101625.59
2022-10-17T07:18:25.995Z,101629.56
2022-10-17T07:20:55.027Z,101634.63
2022-10-17T07:23:23.267Z,101634.31
2022-10-17T07:25:50.908Z,101633.22
2022-10-17T07:28:18.716Z,101629.13
2022-10-17T07:30:50.626Z,101628.53
2022-10-17T07:33:22.682Z,101620.84
2022-10-17T07:35:52.534Z,101623.19
2022-10-17T07:38:20.192Z,101638.16
2022-10-17T07:40:54.339Z,101640.81
2022-10-17T07:43:22.002Z,101646.66
2022-10-17T07:45:49.669Z,101637.53
2022-10-17T07:48:17.379Z,101641.00
2022-10-17T07:50:46.684Z,101659.41
2022-10-17T07:53:14.488Z,101667.91
2022-10-17T07:55:42.544Z,101677.97
2022-10-17T07:58:10.593Z,101699.97
2022-10-17T08:00:38.705Z,101736.25
2022-10-17T08:03:07.405Z,101761.09
2022-10-17T08:05:35.516Z,101771.78
2022-10-17T08:08:04.611Z,101788.91
2022-10-17T08:10:32.233Z,101787.31
2022-10-17T08:12:59.986Z,101793.25
2022-10-17T08:15:31.002Z,101799.06
2022-10-17T08:18:00.160Z,101798.69
2022-10-17T08:20:27.873Z,101806.41
2022-10-17T08:22:56.220Z,101795.44
2022-10-17T08:25:25.438Z,101775.34
2022-10-17T08:27:53.037Z,101774.25
2022-10-17T08:30:20.681Z,101773.16
2022-10-17T08:32:48.356Z,101768.31
2022-10-17T08:35:16.122Z,101784.06
2022-10-17T08:37:43.651Z,101785.22
2022-10-17T08:40:18.289Z,101791.44
2022-10-17T08:43:21.039Z,101819.66
2022-10-17T08:45:55.456Z,101826.88
2022-10-17T08:48:26.580Z,101835.88
2022-10-17T08:50:57.522Z,101848.16
2022-10-17T08:53:31.050Z,101856.97
2022-10-17T08:56:01.662Z,101865.75
2022-10-17T08:58:34.134Z,101868.94
2022-10-17T09:01:12.050Z,101843.00
2022-10-17T09:03:53.670Z,101827.75
2022-10-17T09:06:29.830Z,101811.72
2022-10-17T09:09:21.937Z,101794.31
2022-10-17T09:12:03.825Z,101782.22
2022-10-17T09:14:53.773Z,101754.91
2022-10-17T09:17:33.829Z,101758.34
2022-10-17T09:20:05.922Z,101775.66
2022-10-17T09:22:39.649Z,101771.91
2022-10-17T09:25:13.528Z,101778.84
2022-10-17T09:27:44.283Z,101775.06
2022-10-17T09:30:44.075Z,101781.22
2022-10-17T09:33:28.085Z,101817.84
2022-10-17T09:36:05.093Z,101835.75
2022-10-17T09:38:39.932Z,101857.13
2022-10-17T09:41:39.162Z,101858.25
2022-10-17T09:44:15.498Z,101821.91
2022-10-17T09:46:56.753Z,101812.00
2022-10-17T09:49:27.233Z,101799.63
2022-10-17T09:51:54.872Z,101791.91
2022-10-17T09:54:26.541Z,101795.84
2022-10-17T09:57:03.270Z,101800.63
2022-10-17T09:59:33.021Z,101802.66
2022-10-17T10:02:15.293Z,101797.22
2022-10-17T10:05:08.832Z,101806.53
2022-10-17T10:07:39.009Z,101830.28
2022-10-17T10:10:09.507Z,101842.09
2022-10-17T10:12:40.468Z,101848.25
2022-10-17T10:15:38.667Z,101847.63
2022-10-17T10:21:09.146Z,101868.41
2022-10-17T10:23:39.996Z,101875.03
2022-10-17T10:26:25.804Z,101901.78
2022-10-17T10:28:59.873Z,101904.47
2022-10-17T10:31:34.540Z,101916.22
2022-10-17T10:34:16.104Z,101922.38
2022-10-17T10:36:46.652Z,101910.88
2022-10-17T10:39:44.685Z,101923.19
2022-10-17T10:42:25.493Z,101931.19
2022-10-17T10:44:55.364Z,101921.00
2022-10-17T10:47:26.230Z,101921.47
2022-10-17T10:50:10.242Z,101933.19
2022-10-17T10:52:44.792Z,101920.88
2022-10-17T10:55:22.392Z,101925.66
2022-10-17T10:57:54.121Z,101936.84
2022-10-17T11:00:26.747Z,101941.06
2022-10-17T11:03:03.829Z,101939.41
2022-10-17T11:05:42.889Z,101948.41
2022-10-17T11:08:20.342Z,101948.56
2022-10-17T11:11:00.435Z,101949.84
2022-10-17T11:13:33.001Z,101956.50
2022-10-17T11:16:08.509Z,101951.94
2022-10-17T11:18:44.037Z,101955.59
2022-10-17T11:21:17.745Z,101958.00
2022-10-17T11:23:48.679Z,101965.22
2022-10-17T11:26:26.717Z,101978.59
2022-10-17T11:28:54.820Z,101976.50
2022-10-17T11:31:24.328Z,101982.44
2022-10-17T11:33:57.100Z,101986.53
2022-10-17T11:36:31.193Z,101987.94
2022-10-17T11:39:04.393Z,101995.44
2022-10-17T11:41:38.891Z,101996.06
2022-10-17T11:44:14.356Z,101998.44
2022-10-17T11:46:45.543Z,101998.53
2022-10-17T11:49:20.054Z,102004.38
2022-10-17T11:52:00.409Z,102005.97
2022-10-17T11:54:34.992Z,102003.47
2022-10-17T11:57:15.843Z,102004.00
2022-10-17T11:59:58.402Z,102007.44
2022-10-17T12:02:37.739Z,102003.38
2022-10-17T12:05:19.887Z,101993.94
2022-10-17T12:07:59.912Z,102003.75
2022-10-17T12:10:38.096Z,102006.91
2022-10-17T12:13:42.802Z,102004.75
2022-10-17T12:16:50.820Z,101997.41
2022-10-17T12:19:39.461Z,102001.34
2022-10-17T12:22:20.211Z,102004.53
2022-10-17T12:24:57.558Z,102013.84
2022-10-17T12:27:34.164Z,102011.47
2022-10-17T12:30:04.100Z,102019.50
2022-10-17T12:32:46.881Z,102021.06
2022-10-17T12:35:22.957Z,102025.34
2022-10-17T12:38:15.406Z,102021.59
2022-10-17T12:40:58.194Z,102016.22
2022-10-17T12:43:53.575Z,102016.22
2022-10-17T12:46:57.035Z,102025.81
2022-10-17T12:49:51.108Z,102037.63
2022-10-17T12:52:37.737Z,102040.91
2022-10-17T12:55:14.006Z,102041.97
2022-10-17T12:57:49.979Z,102035.88
2022-10-17T13:00:23.903Z,102044.66
2022-10-17T13:02:55.261Z,102043.09
2022-10-17T13:05:29.340Z,102045.47
2022-10-17T13:07:58.933Z,102044.66
2022-10-17T13:10:29.904Z,102050.50
2022-10-17T13:13:07.202Z,102056.06
2022-10-17T13:15:36.390Z,102058.16
2022-10-17T13:18:04.634Z,102065.88
2022-10-17T13:20:33.388Z,102065.38
2022-10-17T13:23:01.203Z,102066.94
2022-10-17T13:25:29.251Z,102076.56
2022-10-17T13:28:13.936Z,102080.22
2022-10-17T13:30:49.369Z,102075.88
2022-10-17T13:33:29.892Z,102089.44
2022-10-17T13:36:01.312Z,102100.16
2022-10-17T13:38:34.133Z,102105.19
2022-10-17T13:41:33.623Z,102105.09
2022-10-17T13:43:55.155Z,102112.53
2022-10-17T13:46:37.336Z,102117.56
2022-10-17T13:49:13.812Z,102116.00
2022-10-17T13:51:45.877Z,102126.41
2022-10-17T13:54:31.605Z,102129.09
2022-10-17T13:57:00.864Z,102132.88
2022-10-17T13:59:37.074Z,102140.59
2022-10-17T14:02:05.964Z,102138.72
2022-10-17T14:04:57.781Z,102141.09
2022-10-17T14:07:29.292Z,102141.88
2022-10-17T14:09:59.189Z,102147.25
2022-10-17T14:12:26.742Z,102144.84
2022-10-17T14:15:10.118Z,102137.13
2022-10-17T14:17:38.926Z,102133.38
2022-10-17T14:20:47.867Z,102136.22
2022-10-17T14:23:20.817Z,102133.84
2022-10-17T14:25:43.697Z,102127.38
2022-10-17T14:28:16.886Z,102128.97
2022-10-17T14:31:03.229Z,102123.03
2022-10-17T14:33:35.393Z,102128.59
2022-10-17T14:36:06.255Z,102123.44
2022-10-17T14:38:35.925Z,102121.63
2022-10-17T14:41:40.832Z,102139.53
2022-10-17T14:44:00.234Z,102137.13
2022-10-17T14:46:29.752Z,102138.97
2022-10-17T14:49:03.200Z,102139.84
2022-10-17T14:51:40.033Z,102136.72
2022-10-17T14:54:23.315Z,102144.94
2022-10-17T14:56:53.272Z,102144.44
2022-10-17T14:59:51.416Z,102139.69
2022-10-17T15:02:13.116Z,102136.97
2022-10-17T15:04:40.788Z,102147.03
2022-10-17T15:07:08.465Z,102151.69
2022-10-17T15:09:35.957Z,102164.13
2022-10-17T15:12:08.000Z,102162.84
2022-10-17T15:14:35.621Z,102172.28
2022-10-17T15:17:03.265Z,102168.59
2022-10-17T15:19:32.048Z,102169.41
2022-10-17T15:21:59.685Z,102174.28
2022-10-17T15:24:27.321Z,102178.06
2022-10-17T15:26:55.774Z,102175.66
2022-10-17T15:29:23.380Z,102174.88
2022-10-17T15:31:51.021Z,102186.69
2022-10-17T15:34:18.653Z,102185.91
2022-10-17T15:36:52.839Z,102188.09
2022-10-17T15:39:20.698Z,102195.31
2022-10-17T15:41:49.255Z,102192.16
2022-10-17T15:44:16.902Z,102193.22
2022-10-17T15:46:44.674Z,102202.66
2022-10-17T15:49:15.162Z,102206.75
2022-10-17T15:51:42.783Z,102210.31
2022-10-17T15:56:42.851Z,102210.53
2022-10-17T15:59:16.438Z,102214.09
2022-10-17T16:01:44.841Z,102220.63
2022-10-17T16:04:15.487Z,102229.53
2022-10-17T16:06:43.755Z,102231.72
2022-10-17T16:09:12.711Z,102229.16
2022-10-17T16:11:42.319Z,102231.16
2022-10-17T16:14:13.196Z,102230.75
2022-10-17T16:16:41.155Z,102244.22
2022-10-17T16:19:09.355Z,102244.31
2022-10-17T16:21:39.948Z,102252.13
2022-10-17T16:24:08.177Z,102250.31
2022-10-17T16:26:37.167Z,102256.28
2022-10-17T16:29:04.931Z,102259.22
2022-10-17T16:31:34.983Z,102268.63
2022-10-17T16:34:04.597Z,102255.88
2022-10-17T16:36:32.491Z,102254.84
2022-10-17T16:39:04.515Z,102255.44
2022-10-17T16:41:34.045Z,102267.53
2022-10-17T16:44:05.481Z,102264.94
2022-10-17T16:46:34.597Z,102276.22
2022-10-17T16:49:02.273Z,102280.88
2022-10-17T16:51:31.217Z,102283.31
2022-10-17T16:54:00.229Z,102281.22
2022-10-17T16:56:29.778Z,102280.22
2022-10-17T16:58:57.591Z,102275.44
2022-10-17T17:01:29.197Z,102274.13
2022-10-17T17:03:57.584Z,102280.06
2022-10-17T17:06:27.096Z,102282.22
2022-10-17T17:08:55.862Z,102290.31
2022-10-17T17:11:25.066Z,102287.41
2022-10-17T17:13:53.080Z,102285.59
2022-10-17T17:16:22.926Z,102287.53
2022-10-17T17:18:56.050Z,102290.00
2022-10-17T17:21:24.379Z,102286.34
2022-10-17T17:23:52.638Z,102293.31
2022-10-17T17:26:21.665Z,102296.28
2022-10-17T17:28:50.622Z,102293.63
2022-10-17T17:31:20.283Z,102296.28
2022-10-17T17:33:48.116Z,102296.59
2022-10-17T17:36:19.697Z,102301.44
2022-10-17T17:38:48.581Z,102306.25
2022-10-17T17:41:19.248Z,102305.72
2022-10-17T17:43:48.125Z,102310.56
2022-10-17T17:46:18.171Z,102313.25
2022-10-17T17:48:47.212Z,102317.00
2022-10-17T17:51:19.707Z,102329.28
2022-10-17T17:53:48.443Z,102326.91
2022-10-17T17:56:17.910Z,102321.03
2022-10-17T17:58:48.229Z,102325.59
2022-10-17T18:01:20.273Z,102319.75
2022-10-17T18:03:49.228Z,102325.66
2022-10-17T18:06:18.924Z,102328.88
2022-10-17T18:08:47.996Z,102335.81
2022-10-17T18:11:18.341Z,102337.41
2022-10-17T18:13:49.085Z,102346.50
2022-10-17T18:16:16.771Z,102336.13
2022-10-17T18:18:46.044Z,102348.16
2022-10-17T18:21:15.025Z,102339.63
2022-10-17T18:23:45.937Z,102348.22
2022-10-17T18:26:15.021Z,102351.44
2022-10-17T18:28:44.463Z,102358.41
2022-10-17T18:31:15.201Z,102364.81
2022-10-17T18:33:44.576Z,102357.59
2022-10-17T18:36:14.868Z,102361.34
2022-10-17T18:38:44.529Z,102358.16
2022-10-17T18:41:15.042Z,102355.78
2022-10-17T18:43:44.234Z,102360.63
2022-10-17T18:46:14.836Z,102357.94
2022-10-17T18:48:45.378Z,102362.75
2022-10-17T18:51:14.378Z,102369.47
2022-10-17T18:53:44.478Z,102364.41
2022-10-17T18:56:12.871Z,102366.25
2022-10-17T18:58:41.530Z,102381.50
2022-10-17T19:01:11.739Z,102379.63
2022-10-17T19:03:39.636Z,102383.59
2022-10-17T19:06:09.141Z,102375.59
2022-10-17T19:08:37.786Z,102376.94
2022-10-17T19:11:08.165Z,102368.94
2022-10-17T19:13:36.257Z,102378.03
2022-10-17T19:16:06.800Z,102390.09
2022-10-17T19:18:34.889Z,102391.44
2022-10-17T19:21:04.048Z,102392.25
2022-10-17T19:23:32.249Z,102391.94
2022-10-17T19:26:03.704Z,102398.09
2022-10-17T19:28:32.818Z,102394.63
2022-10-17T19:31:00.990Z,102389.28
2022-10-17T19:36:04.222Z,102400.75
2022-10-17T19:38:34.090Z,102397.28
2022-10-17T19:41:01.883Z,102392.25
2022-10-17T19:43:29.344Z,102390.63
2022-10-17T19:46:00.658Z,102390.41
2022-10-17T19:48:29.003Z,102384.28
2022-10-17T19:50:56.635Z,102393.84
2022-10-17T19:53:27.438Z,102393.09
2022-10-17T19:55:55.092Z,102393.34
2022-10-17T19:58:22.798Z,102391.78
2022-10-17T20:00:54.292Z,102395.81
2022-10-17T20:03:23.840Z,102395.81
2022-10-17T20:05:52.168Z,102409.94
2022-10-17T20:08:20.193Z,102411.53
2022-10-17T20:10:48.486Z,102414.19
2022-10-17T20:13:16.107Z,102417.97
2022-10-17T20:15:43.801Z,102413.69
2022-10-17T20:18:11.413Z,102416.06
2022-10-17T20:20:40.409Z,102419.03
2022-10-17T20:23:08.011Z,102435.03
2022-10-17T20:25:38.087Z,102425.44
2022-10-17T20:28:05.846Z,102432.66
2022-10-17T20:30:33.555Z,102436.41
2022-10-17T20:33:01.229Z,102446.84
2022-10-17T20:35:28.978Z,102445.25
2022-10-17T20:37:58.318Z,102451.94
2022-10-17T20:40:41.235Z,102456.22
2022-10-17T20:43:09.468Z,102455.94
2022-10-17T20:45:51.200Z,102456.72
2022-10-17T20:48:19.317Z,102456.22
2022-10-17T20:50:46.947Z,102460.47
2022-10-17T20:53:36.915Z,102466.09
2022-10-17T20:56:06.345Z,102477.28
2022-10-17T20:58:34.003Z,102481.56
2022-10-17T21:01:07.007Z,102479.66
2022-10-17T21:03:37.102Z,102480.47
2022-10-17T21:06:08.845Z,102486.91
2022-10-17T21:08:37.900Z,102500.25
2022-10-17T21:11:13.307Z,102496.47
2022-10-17T21:13:41.177Z,102498.91
2022-10-17T21:16:10.743Z,102495.13
2022-10-17T21:18:38.961Z,102496.75
2022-10-17T21:21:12.523Z,102505.81
2022-10-17T21:23:42.653Z,102511.16
2022-10-17T21:26:12.320Z,102509.81
2022-10-17T21:28:41.029Z,102503.97
2022-10-17T21:31:11.198Z,102503.19
2022-10-17T21:33:39.125Z,102505.31
2022-10-17T21:36:07.480Z,102501.31
2022-10-17T21:38:36.835Z,102505.06
2022-10-17T21:41:07.830Z,102503.75
2022-10-17T21:43:36.679Z,102504.81
2022-10-17T21:46:05.741Z,102506.16
2022-10-17T21:48:33.884Z,102500.81
2022-10-17T21:51:02.853Z,102500.81
2022-10-17T21:53:31.025Z,102494.97
2022-10-17T21:56:00.569Z,102499.78
2022-10-17T21:58:30.001Z,102503.00
2022-10-17T22:01:05.573Z,102498.25
2022-10-17T22:03:34.480Z,102504.63
2022-10-17T22:06:13.055Z,102509.47
2022-10-17T22:08:50.964Z,102519.59
2022-10-17T22:11:20.058Z,102518.00
2022-10-17T22:13:49.406Z,102520.16
2022-10-17T22:16:17.622Z,102518.53
2022-10-17T22:18:45.201Z,102526.53
2022-10-17T22:21:14.573Z,102527.63
2022-10-17T22:23:42.566Z,102530.56
2022-10-17T22:26:11.063Z,102523.94
2022-10-17T22:28:40.758Z,102530.88
2022-10-17T22:31:10.424Z,102531.44
2022-10-17T22:33:39.827Z,102534.38
2022-10-17T22:36:09.197Z,102535.44
2022-10-17T22:38:37.418Z,102536.50
2022-10-17T22:41:05.581Z,102529.56
2022-10-17T22:43:34.047Z,102532.53
2022-10-17T22:46:03.499Z,102533.59
2022-10-17T22:48:32.538Z,102531.19
2022-10-17T22:51:00.999Z,102534.41
2022-10-17T22:53:29.995Z,102542.69
2022-10-17T22:55:59.538Z,102539.22
2022-10-17T22:58:28.337Z,102544.53
2022-10-17T23:00:56.743Z,102543.78
2022-10-17T23:03:25.638Z,102536.53
2022-10-17T23:05:55.303Z,102535.78
2022-10-17T23:08:23.061Z,102539.50
2022-10-17T23:10:50.529Z,102535.22
2022-10-17T23:13:18.711Z,102539.78
2022-10-17T23:15:46.667Z,102532.56
2022-10-17T23:18:14.537Z,102543.50
2022-10-17T23:20:42.171Z,102544.84
2022-10-17T23:23:11.175Z,102541.66
2022-10-17T23:25:38.829Z,102542.72
2022-10-17T23:28:07.346Z,102551.00
2022-10-17T23:30:35.193Z,102549.16
2022-10-17T23:33:02.652Z,102538.25
2022-10-17T23:35:30.449Z,102541.16
2022-10-17T23:37:57.905Z,102540.63
2022-10-17T23:40:28.013Z,102539.03
2022-10-17T23:42:55.679Z,102545.44
2022-10-17T23:45:23.331Z,102545.44
2022-10-17T23:47:51.026Z,102545.44
2022-10-17T23:50:18.930Z,102548.41
2022-10-17T23:52:46.577Z,102546.78
2022-10-17T23:55:14.205Z,102543.31
2022-10-17T23:57:43.280Z,102542.78
